Time;durP1;ratioP1;P1;durP2;ratioP2;P2;SDS_P1;SDS_P2;PMS_P1;PMS_P2;Temp;Humidity;BMP_temperature;BMP_pressure;BME280_temperature;BME280_humidity;BME280_pressure;Samples;Min_cycle;Max_cycle;Signal;HPM_P1;HPM_P2
2021/12/31 00:00:28;;;;;;;26.10;13.20;;;;;;;6.36;90.39;98644.86;104975;1312;22663;-77
2021/12/31 00:02:55;;;;;;;33.10;16.10;;;;;;;6.33;90.56;98644.48;105118;1312;24214;-73
2021/12/31 00:05:22;;;;;;;70.00;28.40;;;;;;;6.33;90.59;98645.89;104980;1311;22603;-76
2021/12/31 00:07:49;;;;;;;55.80;23.10;;;;;;;6.30;90.49;98646.85;104818;1313;22574;-76
2021/12/31 00:10:16;;;;;;;26.40;15.50;;;;;;;6.28;90.45;98649.19;104963;1312;22617;-73
2021/12/31 00:12:44;;;;;;;41.90;22.40;;;;;;;6.32;90.33;98652.84;104971;1313;23058;-77
2021/12/31 00:15:12;;;;;;;41.60;20.70;;;;;;;6.34;90.38;98650.48;104945;1313;22730;-73
2021/12/31 00:17:40;;;;;;;50.40;25.00;;;;;;;6.37;90.45;98650.16;104994;1313;25602;-75
2021/12/31 00:20:18;;;;;;;29.40;18.10;;;;;;;6.35;90.50;98653.55;105011;1313;22577;-74
2021/12/31 00:25:13;;;;;;;65.20;30.50;;;;;;;6.33;90.67;98652.61;104986;1313;22625;-74
2021/12/31 00:27:40;;;;;;;42.30;24.00;;;;;;;6.35;90.58;98654.39;105009;1312;22611;-74
2021/12/31 00:30:09;;;;;;;39.40;22.00;;;;;;;6.40;90.45;98654.86;104968;1312;22566;-73
2021/12/31 00:32:37;;;;;;;33.20;19.20;;;;;;;6.43;90.30;98663.42;104984;1312;22636;-74
2021/12/31 00:35:05;;;;;;;32.60;18.10;;;;;;;6.44;90.47;98658.86;104968;1312;22572;-76
2021/12/31 00:37:33;;;;;;;35.30;20.70;;;;;;;6.44;90.57;98657.84;105024;1312;23369;-76
2021/12/31 00:40:02;;;;;;;26.60;16.60;;;;;;;6.45;90.75;98662.77;104907;1312;22579;-73
2021/12/31 00:42:29;;;;;;;34.20;20.10;;;;;;;6.45;90.63;98663.33;104931;1312;22625;-75
2021/12/31 00:44:56;;;;;;;29.70;20.30;;;;;;;6.46;90.70;98664.30;104914;1312;22658;-73
2021/12/31 00:47:23;;;;;;;28.80;19.60;;;;;;;6.50;90.45;98660.82;104928;1312;22600;-74
2021/12/31 00:49:50;;;;;;;25.00;17.20;;;;;;;6.53;90.49;98667.71;105018;1313;22719;-77
2021/12/31 00:52:17;;;;;;;26.40;16.80;;;;;;;6.58;90.67;98667.16;104978;1312;22612;-75
2021/12/31 00:54:44;;;;;;;30.90;18.30;;;;;;;6.61;90.68;98668.73;105036;1312;22579;-73
2021/12/31 00:57:11;;;;;;;21.10;14.90;;;;;;;6.63;90.98;98669.32;105013;1312;22580;-77
2021/12/31 00:59:38;;;;;;;23.60;15.80;;;;;;;6.66;90.84;98674.21;104965;1312;22657;-75
2021/12/31 01:02:06;;;;;;;29.90;18.90;;;;;;;6.69;91.24;98668.69;104980;1312;24182;-76
2021/12/31 01:04:33;;;;;;;18.40;13.10;;;;;;;6.78;91.18;98671.03;105004;1312;22572;-75
2021/12/31 01:07:04;;;;;;;18.00;12.30;;;;;;;6.82;91.03;98674.08;104961;1313;22768;-74
2021/12/31 01:09:32;;;;;;;21.50;13.00;;;;;;;6.88;90.94;98671.92;104935;1313;22597;-74
2021/12/31 01:12:01;;;;;;;25.40;14.50;;;;;;;6.91;91.31;98671.58;104910;1312;23222;-73
2021/12/31 01:14:36;;;;;;;26.90;14.20;;;;;;;6.92;91.40;98674.13;104903;1313;22601;-73
2021/12/31 01:17:08;;;;;;;22.00;13.30;;;;;;;6.93;91.26;98675.80;104903;1313;26141;-74
2021/12/31 01:19:46;;;;;;;30.20;16.30;;;;;;;6.98;91.02;98678.48;105001;1313;22571;-76
2021/12/31 01:22:24;;;;;;;21.40;13.70;;;;;;;7.04;91.08;98679.09;104949;1312;22593;-76
2021/12/31 01:24:51;;;;;;;29.20;17.00;;;;;;;7.07;91.11;98685.64;105007;1313;22723;-74
2021/12/31 01:27:18;;;;;;;18.10;13.40;;;;;;;7.11;90.96;98682.88;104982;1311;22612;-75
2021/12/31 01:29:46;;;;;;;21.90;14.80;;;;;;;7.13;91.09;98684.34;104851;1312;22637;-77
2021/12/31 01:32:12;;;;;;;25.00;17.30;;;;;;;7.12;91.37;98682.96;104970;1308;22616;-75
2021/12/31 01:34:40;;;;;;;26.90;15.90;;;;;;;7.12;91.08;98685.58;104939;1313;22622;-73
2021/12/31 01:37:08;;;;;;;22.90;15.40;;;;;;;7.18;91.31;98682.52;104999;1312;22704;-74
2021/12/31 01:39:36;;;;;;;69.20;33.30;;;;;;;7.21;90.95;98679.59;105028;1307;22601;-76
2021/12/31 01:42:07;;;;;;;18.40;11.20;;;;;;;7.24;91.12;98683.97;104990;1311;22991;-75
2021/12/31 01:44:38;;;;;;;36.60;19.00;;;;;;;7.21;91.44;98690.35;105003;1312;22636;-74
2021/12/31 01:47:11;;;;;;;32.30;17.30;;;;;;;7.19;91.02;98691.46;104984;1313;24733;-73
2021/12/31 01:49:40;;;;;;;29.50;18.30;;;;;;;7.18;91.03;98695.34;104995;1313;26466;-76
2021/12/31 01:52:10;;;;;;;42.40;23.10;;;;;;;7.19;90.96;98700.50;105021;1313;22595;-74
2021/12/31 01:54:38;;;;;;;49.10;25.10;;;;;;;7.18;91.00;98698.81;104960;1303;24178;-76
2021/12/31 01:57:09;;;;;;;55.90;27.40;;;;;;;7.16;91.07;98694.91;104962;1312;22612;-76
2021/12/31 01:59:38;;;;;;;47.70;24.70;;;;;;;7.15;91.13;98701.16;104975;1312;24231;-75
2021/12/31 02:02:07;;;;;;;24.90;16.20;;;;;;;7.11;91.31;98698.78;105025;1312;24246;-74
2021/12/31 02:04:37;;;;;;;53.60;26.30;;;;;;;7.10;90.95;98698.84;105024;1311;22645;-76
2021/12/31 02:07:05;;;;;;;27.20;17.50;;;;;;;7.09;91.22;98698.54;105019;1311;23046;-76
2021/12/31 02:09:37;;;;;;;29.00;18.00;;;;;;;7.13;91.05;98694.04;105039;1313;24333;-75
2021/12/31 02:12:04;;;;;;;23.50;15.50;;;;;;;7.17;91.02;98694.85;105002;1313;22645;-75
2021/12/31 02:14:33;;;;;;;42.40;23.20;;;;;;;7.19;91.15;98687.67;104987;1312;22570;-75
2021/12/31 02:17:00;;;;;;;39.10;21.80;;;;;;;7.22;91.03;98686.83;104909;1312;22577;-77
2021/12/31 02:19:28;;;;;;;19.30;13.60;;;;;;;7.22;91.23;98680.09;104904;1312;22592;-74
2021/12/31 02:21:56;;;;;;;30.80;19.10;;;;;;;7.21;91.05;98677.02;104930;1313;22698;-76
2021/12/31 02:24:24;;;;;;;17.90;13.60;;;;;;;7.21;91.12;98674.06;104950;1312;24465;-75
2021/12/31 02:26:51;;;;;;;20.30;14.30;;;;;;;7.25;90.92;98665.35;104964;1312;22584;-74
2021/12/31 02:29:21;;;;;;;20.10;13.90;;;;;;;7.30;91.09;98663.73;104979;1312;22633;-76
2021/12/31 02:31:49;;;;;;;20.20;13.40;;;;;;;7.32;90.92;98666.43;105022;1313;22584;-74
2021/12/31 02:34:16;;;;;;;15.40;10.90;;;;;;;7.35;91.21;98669.70;105026;1312;22649;-75
2021/12/31 02:36:43;;;;;;;17.60;11.80;;;;;;;7.36;91.15;98670.14;104992;1313;22581;-73
2021/12/31 02:39:09;;;;;;;19.20;14.20;;;;;;;7.37;91.31;98672.73;104964;1312;22586;-73
2021/12/31 02:41:37;;;;;;;21.60;14.30;;;;;;;7.35;91.53;98670.73;104962;1313;22629;-74
2021/12/31 02:44:04;;;;;;;18.40;13.40;;;;;;;7.36;91.25;98673.27;104944;1312;22572;-73
2021/12/31 02:46:31;;;;;;;19.90;14.40;;;;;;;7.41;91.19;98679.08;105086;1313;22621;-78
2021/12/31 02:48:58;;;;;;;18.00;13.80;;;;;;;7.45;91.14;98678.52;105213;1313;22602;-73
2021/12/31 02:51:27;;;;;;;18.50;15.20;;;;;;;7.49;91.50;98680.41;105202;1313;24369;-77
2021/12/31 02:53:55;;;;;;;18.60;15.50;;;;;;;7.49;91.42;98682.14;105133;1313;22613;-76
2021/12/31 02:56:23;;;;;;;21.70;15.50;;;;;;;7.48;91.32;98680.27;105132;1312;22663;-73
2021/12/31 02:58:52;;;;;;;18.60;13.80;;;;;;;7.47;91.25;98683.29;105199;1313;22590;-77
2021/12/31 03:01:19;;;;;;;17.90;14.00;;;;;;;7.48;91.14;98689.98;105258;1312;22712;-75
2021/12/31 03:03:49;;;;;;;16.00;11.10;;;;;;;7.49;90.89;98684.90;105279;1313;22597;-76
2021/12/31 03:06:17;;;;;;;13.70;10.30;;;;;;;7.48;91.39;98685.13;105311;1311;22571;-75
2021/12/31 03:08:46;;;;;;;13.30;9.40;;;;;;;7.47;91.32;98686.40;105236;1311;22595;-77
2021/12/31 03:11:18;;;;;;;14.10;10.60;;;;;;;7.42;91.10;98692.18;105219;1313;22603;-77
2021/12/31 03:13:52;;;;;;;19.90;15.80;;;;;;;7.41;91.30;98694.89;105234;1313;22564;-75
2021/12/31 03:16:22;;;;;;;19.80;13.70;;;;;;;7.41;91.07;98691.20;105265;1312;23037;-73
2021/12/31 03:18:54;;;;;;;18.10;13.70;;;;;;;7.40;90.86;98692.13;105345;1312;24329;-73
2021/12/31 03:21:22;;;;;;;18.70;13.30;;;;;;;7.39;91.13;98694.08;105321;1311;25738;-74
2021/12/31 03:23:54;;;;;;;20.10;14.60;;;;;;;7.37;91.02;98698.70;105332;1313;22602;-74
2021/12/31 03:26:22;;;;;;;19.00;14.00;;;;;;;7.35;91.02;98705.89;105332;1313;22742;-75
2021/12/31 03:28:49;;;;;;;20.10;14.50;;;;;;;7.32;91.17;98708.49;105311;1312;22624;-74
2021/12/31 03:31:16;;;;;;;19.80;14.10;;;;;;;7.31;91.22;98713.39;105216;1312;22653;-75
2021/12/31 03:33:43;;;;;;;17.60;13.20;;;;;;;7.33;90.98;98713.14;105260;1312;22571;-73
2021/12/31 03:36:10;;;;;;;16.80;13.00;;;;;;;7.33;91.02;98708.98;105275;1312;22619;-75
2021/12/31 03:38:38;;;;;;;17.20;13.20;;;;;;;7.34;91.13;98715.66;105172;1312;22577;-74
2021/12/31 03:41:05;;;;;;;21.00;14.40;;;;;;;7.31;91.03;98712.54;105242;1312;22574;-73
2021/12/31 03:43:32;;;;;;;19.70;14.60;;;;;;;7.28;90.90;98715.10;105147;1312;22605;-76
2021/12/31 03:45:59;;;;;;;21.80;15.80;;;;;;;7.25;90.93;98713.00;105202;1312;22657;-75
2021/12/31 03:48:26;;;;;;;21.20;15.20;;;;;;;7.22;90.91;98711.43;105207;1312;22567;-74
2021/12/31 03:50:53;;;;;;;19.00;14.80;;;;;;;7.22;90.69;98713.70;105210;1311;24338;-75
2021/12/31 03:53:20;;;;;;;18.80;13.70;;;;;;;7.20;90.66;98712.23;105169;1313;22628;-73
2021/12/31 03:55:47;;;;;;;18.40;13.40;;;;;;;7.18;90.81;98715.09;105217;1311;22602;-75
2021/12/31 03:58:14;;;;;;;20.10;13.50;;;;;;;7.17;90.95;98714.27;105160;1312;22605;-74
2021/12/31 04:00:41;;;;;;;17.90;12.90;;;;;;;7.11;90.96;98709.19;105217;1311;22619;-76
2021/12/31 04:03:10;;;;;;;18.70;11.80;;;;;;;7.09;91.05;98708.95;105204;1312;22723;-74
2021/12/31 04:05:40;;;;;;;17.60;12.70;;;;;;;7.08;90.48;98708.13;105181;1311;22588;-75
2021/12/31 04:08:08;;;;;;;17.30;11.00;;;;;;;7.08;90.75;98707.58;105297;1311;22638;-75
2021/12/31 04:10:35;;;;;;;64.90;31.90;;;;;;;7.08;90.64;98708.27;105247;1311;24194;-76
2021/12/31 04:13:03;;;;;;;45.50;31.70;;;;;;;7.07;90.72;98707.63;105238;1312;22577;-75
2021/12/31 04:15:30;;;;;;;22.60;14.40;;;;;;;7.07;91.09;98706.10;105151;1312;22619;-74
2021/12/31 04:17:57;;;;;;;31.00;17.30;;;;;;;7.04;91.05;98709.36;105179;1312;22611;-74
2021/12/31 04:20:37;;;;;;;26.20;14.30;;;;;;;7.04;90.85;98707.83;105137;1312;22740;-75
2021/12/31 04:23:14;;;;;;;13.00;9.20;;;;;;;7.06;91.02;98706.01;105168;1313;25336;-75
2021/12/31 04:25:41;;;;;;;17.80;10.40;;;;;;;7.04;90.77;98702.13;105136;1312;22619;-75
2021/12/31 04:28:09;;;;;;;27.90;16.20;;;;;;;7.02;90.93;98701.66;105145;1312;22713;-75
2021/12/31 04:30:36;;;;;;;18.90;13.10;;;;;;;6.98;91.20;98709.14;105177;1312;22583;-73
2021/12/31 04:33:03;;;;;;;19.50;12.40;;;;;;;6.94;91.01;98711.44;105222;1313;22563;-74
2021/12/31 04:35:30;;;;;;;20.20;14.10;;;;;;;6.92;90.81;98712.05;105179;1307;22651;-74
2021/12/31 04:37:57;;;;;;;22.00;15.10;;;;;;;6.93;90.79;98715.61;105148;1312;22611;-74
2021/12/31 04:40:24;;;;;;;20.10;14.70;;;;;;;6.93;90.54;98720.32;105193;1313;22574;-74
2021/12/31 04:42:51;;;;;;;37.50;23.20;;;;;;;6.92;90.98;98723.97;105161;1312;22573;-72
2021/12/31 04:45:18;;;;;;;26.30;17.80;;;;;;;6.94;91.17;98726.33;105161;1303;22573;-74
2021/12/31 04:47:46;;;;;;;26.40;18.00;;;;;;;6.93;91.18;98727.74;105161;1307;22584;-75
2021/12/31 04:50:13;;;;;;;24.80;18.10;;;;;;;6.91;91.09;98727.48;105209;1313;22585;-75
2021/12/31 04:52:40;;;;;;;25.60;18.10;;;;;;;6.90;91.17;98722.84;105166;1313;22580;-76
2021/12/31 04:55:08;;;;;;;21.70;16.70;;;;;;;6.96;91.01;98723.27;105291;1312;22593;-75
2021/12/31 04:57:35;;;;;;;22.50;17.40;;;;;;;6.99;91.09;98727.12;105215;1312;22587;-77
2021/12/31 05:00:06;;;;;;;23.70;17.70;;;;;;;7.02;90.96;98725.75;105291;1312;22574;-74
2021/12/31 05:02:34;;;;;;;21.00;16.20;;;;;;;7.04;91.22;98723.39;105313;1313;22571;-74
2021/12/31 05:05:04;;;;;;;32.20;22.10;;;;;;;7.06;91.13;98722.63;105329;1311;24099;-75
2021/12/31 05:07:31;;;;;;;44.00;25.30;;;;;;;7.06;91.10;98721.02;105297;1311;22635;-75
2021/12/31 05:09:58;;;;;;;36.50;21.90;;;;;;;7.05;91.33;98722.49;105324;1311;22574;-74
2021/12/31 05:12:26;;;;;;;26.30;17.80;;;;;;;7.10;91.27;98716.34;105218;1312;22595;-72
2021/12/31 05:14:54;;;;;;;27.00;19.90;;;;;;;7.14;90.96;98727.23;105223;1312;22570;-75
2021/12/31 05:17:21;;;;;;;29.70;19.30;;;;;;;7.17;91.22;98724.65;105236;1312;22589;-74
2021/12/31 05:19:48;;;;;;;50.40;28.50;;;;;;;7.17;91.24;98724.98;105223;1311;22576;-73
2021/12/31 05:22:15;;;;;;;76.90;40.00;;;;;;;7.20;91.43;98721.92;105242;1312;22618;-74
2021/12/31 05:24:42;;;;;;;34.70;21.40;;;;;;;7.18;91.44;98717.83;105263;1312;22622;-74
2021/12/31 05:27:09;;;;;;;109.10;50.90;;;;;;;7.19;91.50;98723.37;105168;1312;22603;-75
2021/12/31 05:29:36;;;;;;;53.90;29.70;;;;;;;7.18;91.23;98724.27;105199;1312;22515;-75
2021/12/31 05:32:05;;;;;;;40.00;24.20;;;;;;;7.21;91.07;98723.60;105191;1310;22640;-74
2021/12/31 05:34:32;;;;;;;40.30;23.30;;;;;;;7.23;91.16;98725.77;105187;1313;24121;-73
2021/12/31 05:36:59;;;;;;;30.10;17.90;;;;;;;7.25;91.10;98727.58;105180;1312;22574;-73
2021/12/31 05:39:26;;;;;;;25.40;15.40;;;;;;;7.28;91.16;98735.18;105229;1312;22597;-73
2021/12/31 05:41:54;;;;;;;21.10;12.80;;;;;;;7.29;91.38;98733.27;105181;1312;22686;-74
2021/12/31 05:44:22;;;;;;;31.10;16.80;;;;;;;7.27;91.52;98730.55;105218;1312;25447;-73
2021/12/31 05:46:51;;;;;;;30.10;16.00;;;;;;;7.27;91.58;98728.30;105176;1312;22563;-74
2021/12/31 05:49:18;;;;;;;25.30;15.20;;;;;;;7.31;91.43;98723.45;105226;1312;22739;-73
2021/12/31 05:51:45;;;;;;;16.20;10.60;;;;;;;7.34;91.37;98723.46;105031;1312;22608;-74
2021/12/31 05:54:12;;;;;;;44.40;21.80;;;;;;;7.37;91.38;98724.85;104964;1311;22573;-74
2021/12/31 05:56:38;;;;;;;19.70;11.20;;;;;;;7.39;91.40;98727.34;104930;1310;22582;-74
2021/12/31 05:59:05;;;;;;;43.50;21.20;;;;;;;7.38;91.76;98729.84;104971;1312;22574;-74
2021/12/31 06:01:32;;;;;;;26.60;14.10;;;;;;;7.39;91.65;98732.52;104994;1310;22638;-75
2021/12/31 06:03:59;;;;;;;24.20;12.30;;;;;;;7.40;92.08;98727.83;104990;1312;24195;-74
2021/12/31 06:06:26;;;;;;;24.40;12.40;;;;;;;7.44;91.46;98727.95;104973;1300;25188;-76
2021/12/31 06:08:53;;;;;;;23.70;12.30;;;;;;;7.46;91.83;98730.44;105044;1311;22618;-74
2021/12/31 06:11:20;;;;;;;11.70;8.00;;;;;;;7.49;91.41;98734.46;105060;1311;22614;-75
2021/12/31 06:13:55;;;;;;;30.00;14.50;;;;;;;7.51;91.85;98738.52;104977;1312;22790;-74
2021/12/31 06:16:21;;;;;;;23.30;13.10;;;;;;;7.52;91.89;98741.75;104995;1311;22574;-74
2021/12/31 06:18:48;;;;;;;16.00;10.20;;;;;;;7.50;92.02;98745.52;104969;1312;22729;-76
2021/12/31 06:21:15;;;;;;;26.80;15.40;;;;;;;7.49;92.02;98749.52;105029;1311;22590;-74
2021/12/31 06:23:42;;;;;;;29.20;16.00;;;;;;;7.52;92.01;98750.21;104943;1312;25899;-75
2021/12/31 06:26:10;;;;;;;25.80;15.60;;;;;;;7.55;91.99;98749.59;104946;1313;22575;-75
2021/12/31 06:28:37;;;;;;;16.00;10.60;;;;;;;7.56;92.04;98752.98;104960;1312;22571;-74
2021/12/31 06:31:03;;;;;;;17.50;11.40;;;;;;;7.57;92.05;98752.09;105020;1312;22647;-75
2021/12/31 06:33:30;;;;;;;18.20;12.10;;;;;;;7.55;92.32;98751.15;104909;1312;22577;-76
2021/12/31 06:35:57;;;;;;;23.80;15.10;;;;;;;7.53;91.76;98750.69;105036;1311;22676;-76
2021/12/31 06:38:24;;;;;;;24.30;14.90;;;;;;;7.51;91.65;98748.58;105025;1312;22637;-75
2021/12/31 06:40:51;;;;;;;17.70;12.30;;;;;;;7.54;91.70;98744.75;104982;1312;22715;-76
2021/12/31 06:43:18;;;;;;;18.70;12.00;;;;;;;7.57;91.74;98743.61;105052;1312;22713;-77
2021/12/31 06:45:45;;;;;;;20.90;13.60;;;;;;;7.57;91.84;98745.17;104934;1312;22664;-75
2021/12/31 06:48:12;;;;;;;16.50;11.60;;;;;;;7.58;91.57;98739.89;104941;1311;23165;-74
2021/12/31 06:50:39;;;;;;;18.10;12.90;;;;;;;7.55;91.82;98743.52;104942;1308;24768;-74
2021/12/31 06:53:06;;;;;;;18.10;13.10;;;;;;;7.56;91.73;98750.03;104980;1312;22623;-75
2021/12/31 06:55:33;;;;;;;17.90;13.20;;;;;;;7.59;91.59;98753.04;104977;1313;22565;-74
2021/12/31 06:58:00;;;;;;;16.70;12.20;;;;;;;7.61;91.86;98754.48;104959;1312;23250;-74
2021/12/31 07:00:27;;;;;;;19.60;14.40;;;;;;;7.61;91.63;98756.38;104996;1312;22597;-75
2021/12/31 07:03:14;;;;;;;24.60;17.80;;;;;;;7.61;91.93;98755.17;105045;1312;22608;-74
2021/12/31 07:05:42;;;;;;;25.90;16.80;;;;;;;7.58;91.84;98755.83;104988;1311;22600;-75
2021/12/31 07:08:11;;;;;;;23.80;18.10;;;;;;;7.55;91.62;98754.60;105007;1311;22570;-74
2021/12/31 07:10:37;;;;;;;20.80;16.80;;;;;;;7.58;91.83;98761.90;105100;1311;22647;-74
2021/12/31 07:13:10;;;;;;;22.30;16.80;;;;;;;7.58;91.72;98761.77;105002;1312;22686;-73
2021/12/31 07:15:44;;;;;;;23.30;17.20;;;;;;;7.58;91.48;98760.52;104953;1313;22585;-74
2021/12/31 07:18:11;;;;;;;23.50;18.30;;;;;;;7.57;91.59;98771.32;104958;1311;23250;-72
2021/12/31 07:20:38;;;;;;;27.50;19.90;;;;;;;7.53;91.58;98775.36;104978;1313;22576;-73
2021/12/31 07:23:07;;;;;;;24.60;19.30;;;;;;;7.48;91.56;98774.55;104951;1312;25198;-72
2021/12/31 07:25:35;;;;;;;21.30;15.10;;;;;;;7.48;91.58;98776.27;104987;1312;22599;-73
2021/12/31 07:28:02;;;;;;;24.30;19.00;;;;;;;7.52;91.29;98777.42;104970;1313;22608;-72
2021/12/31 07:30:29;;;;;;;18.90;13.30;;;;;;;7.53;91.19;98782.59;105001;1312;25921;-74
2021/12/31 07:32:56;;;;;;;21.40;14.80;;;;;;;7.52;91.52;98788.21;104981;1313;25500;-73
2021/12/31 07:35:25;;;;;;;19.50;14.80;;;;;;;7.53;91.36;98791.75;104973;1311;22577;-73
2021/12/31 07:37:55;;;;;;;20.10;14.20;;;;;;;7.56;91.45;98795.82;104987;1309;22570;-72
2021/12/31 07:40:43;;;;;;;21.10;15.40;;;;;;;7.55;91.36;98802.45;104996;1312;22659;-74
2021/12/31 07:43:10;;;;;;;21.50;15.40;;;;;;;7.53;91.65;98804.77;104965;1307;22568;-74
2021/12/31 07:45:39;;;;;;;23.40;17.00;;;;;;;7.52;91.58;98808.14;104977;1312;22577;-72
2021/12/31 07:48:06;;;;;;;19.30;14.80;;;;;;;7.54;91.63;98807.33;105059;1312;22600;-73
2021/12/31 07:50:33;;;;;;;19.30;14.40;;;;;;;7.56;91.54;98809.84;105001;1312;22616;-73
2021/12/31 07:53:00;;;;;;;17.60;13.20;;;;;;;7.57;91.56;98810.13;104947;1313;23103;-73
2021/12/31 07:55:27;;;;;;;21.40;14.50;;;;;;;7.56;91.40;98810.72;104954;1312;22633;-73
2021/12/31 07:57:54;;;;;;;19.50;14.10;;;;;;;7.55;91.53;98814.74;104953;1311;22587;-73
2021/12/31 08:00:21;;;;;;;21.10;14.50;;;;;;;7.55;91.57;98810.42;105016;1313;22976;-73
2021/12/31 08:02:49;;;;;;;21.90;14.20;;;;;;;7.54;91.44;98813.02;104918;1313;22620;-72
2021/12/31 08:05:16;;;;;;;20.20;12.40;;;;;;;7.58;91.24;98812.70;104916;1312;22707;-74
2021/12/31 08:07:43;;;;;;;21.40;13.10;;;;;;;7.59;91.43;98812.30;104952;1310;22608;-74
2021/12/31 08:10:10;;;;;;;25.00;13.90;;;;;;;7.59;91.59;98812.27;105016;1311;22620;-74
2021/12/31 08:12:36;;;;;;;25.30;15.20;;;;;;;7.61;91.36;98812.73;104970;1311;22663;-74
2021/12/31 08:15:05;;;;;;;26.00;15.90;;;;;;;7.61;91.40;98816.14;104999;1310;22563;-74
2021/12/31 08:17:32;;;;;;;25.20;16.40;;;;;;;7.62;91.30;98814.06;104945;1313;22596;-74
2021/12/31 08:19:59;;;;;;;27.00;16.90;;;;;;;7.62;91.41;98809.69;104773;1313;22645;-74
2021/12/31 08:22:26;;;;;;;26.80;16.10;;;;;;;7.68;91.43;98806.84;104936;1313;22577;-74
2021/12/31 08:24:53;;;;;;;26.60;16.50;;;;;;;7.71;91.35;98808.72;104963;1311;23958;-73
2021/12/31 08:27:20;;;;;;;24.90;16.60;;;;;;;7.74;91.25;98804.95;104937;1312;22581;-76
2021/12/31 08:29:47;;;;;;;27.90;18.10;;;;;;;7.74;91.52;98810.48;104984;1312;22582;-75
2021/12/31 08:32:14;;;;;;;31.00;19.10;;;;;;;7.74;91.39;98809.98;104927;1313;22600;-75
2021/12/31 08:34:41;;;;;;;38.90;24.20;;;;;;;7.74;91.33;98810.48;104940;1312;22571;-74
2021/12/31 08:37:08;;;;;;;35.50;23.40;;;;;;;7.79;91.15;98812.31;104935;1312;22600;-74
2021/12/31 08:39:35;;;;;;;30.10;20.90;;;;;;;7.83;90.73;98815.23;104933;1313;22561;-75
2021/12/31 08:42:03;;;;;;;34.50;21.50;;;;;;;7.84;91.18;98817.08;104906;1312;22630;-75
2021/12/31 08:44:30;;;;;;;32.30;21.10;;;;;;;7.83;90.93;98817.45;104947;1312;22627;-74
2021/12/31 08:46:57;;;;;;;33.60;20.70;;;;;;;7.85;91.26;98816.34;104964;1311;22590;-74
2021/12/31 08:49:24;;;;;;;31.10;19.50;;;;;;;7.87;90.91;98822.63;104966;1313;22602;-74
2021/12/31 08:51:51;;;;;;;27.60;17.50;;;;;;;7.90;90.86;98824.23;105001;1312;22591;-74
2021/12/31 08:54:18;;;;;;;25.90;16.00;;;;;;;7.93;90.83;98826.02;104990;1313;25511;-75
2021/12/31 08:56:45;;;;;;;31.60;18.60;;;;;;;7.92;90.51;98823.77;104801;1313;22576;-75
2021/12/31 08:59:12;;;;;;;26.90;19.00;;;;;;;7.88;90.51;98826.73;104937;1312;24424;-73
2021/12/31 09:01:39;;;;;;;31.80;20.60;;;;;;;7.85;90.69;98825.34;104780;1313;22574;-74
2021/12/31 09:04:06;;;;;;;33.00;21.00;;;;;;;7.84;90.47;98827.11;104967;1311;22556;-73
2021/12/31 09:06:33;;;;;;;32.10;22.00;;;;;;;7.85;90.29;98825.16;104967;1312;22616;-74
2021/12/31 09:09:00;;;;;;;38.60;26.30;;;;;;;7.88;90.39;98824.12;104955;1311;22611;-74
2021/12/31 09:11:27;;;;;;;39.60;27.40;;;;;;;7.89;90.21;98827.89;104972;1311;24387;-73
2021/12/31 09:13:55;;;;;;;33.60;23.70;;;;;;;7.89;90.52;98827.55;105004;1311;22816;-72
2021/12/31 09:16:22;;;;;;;35.10;24.30;;;;;;;7.90;90.18;98828.21;104976;1312;22589;-74
2021/12/31 09:18:49;;;;;;;35.40;21.50;;;;;;;7.93;90.43;98829.27;104972;1305;22592;-74
2021/12/31 09:21:21;;;;;;;40.00;22.00;;;;;;;7.99;89.89;98837.66;104985;1312;22571;-75
2021/12/31 09:23:49;;;;;;;31.40;20.60;;;;;;;7.99;90.15;98840.91;104864;1311;22604;-74
2021/12/31 09:26:16;;;;;;;31.60;21.30;;;;;;;8.00;90.16;98840.54;104940;1312;22581;-75
2021/12/31 09:28:44;;;;;;;35.80;22.40;;;;;;;8.00;90.12;98840.35;104997;1312;22580;-76
2021/12/31 09:31:12;;;;;;;35.70;23.40;;;;;;;7.99;90.26;98837.27;104989;1311;22611;-74
2021/12/31 09:33:39;;;;;;;35.10;21.40;;;;;;;8.00;89.90;98837.23;104977;1312;24325;-74
2021/12/31 09:36:06;;;;;;;33.90;20.10;;;;;;;8.04;89.72;98831.68;104926;1312;22583;-74
2021/12/31 09:38:33;;;;;;;29.30;18.80;;;;;;;8.08;89.65;98828.01;105011;1313;22737;-73
2021/12/31 09:41:00;;;;;;;31.00;18.80;;;;;;;8.12;89.75;98823.43;104939;1312;22685;-74
2021/12/31 09:43:27;;;;;;;34.70;21.90;;;;;;;8.14;89.87;98822.12;104954;1313;22610;-74
2021/12/31 09:45:54;;;;;;;38.50;22.90;;;;;;;8.17;90.05;98819.89;104950;1312;24183;-74
2021/12/31 09:48:24;;;;;;;31.60;20.10;;;;;;;8.23;89.91;98817.64;104960;1312;22605;-73
2021/12/31 09:50:54;;;;;;;34.50;19.10;;;;;;;8.32;89.71;98817.87;104998;1313;22637;-73
2021/12/31 09:53:24;;;;;;;28.00;16.30;;;;;;;8.40;89.78;98813.13;105136;1313;22585;-73
2021/12/31 09:55:53;;;;;;;29.60;18.40;;;;;;;8.47;89.78;98815.37;105227;1312;22602;-72
2021/12/31 09:58:23;;;;;;;31.30;19.40;;;;;;;8.54;89.76;98818.80;105202;1313;24708;-74
2021/12/31 10:00:53;;;;;;;35.30;20.70;;;;;;;8.62;89.90;98811.40;105208;1312;26584;-73
2021/12/31 10:03:27;;;;;;;29.20;18.50;;;;;;;8.69;89.80;98810.34;105024;1313;22604;-73
2021/12/31 10:05:56;;;;;;;22.50;14.50;;;;;;;8.80;89.22;98813.22;105202;1312;22624;-74
2021/12/31 10:08:23;;;;;;;22.90;14.40;;;;;;;8.88;89.40;98812.77;105238;1312;22571;-74
2021/12/31 10:11:13;;;;;;;29.20;17.70;;;;;;;8.89;89.43;98806.98;105164;1311;25418;-74
2021/12/31 10:13:42;;;;;;;27.30;16.90;;;;;;;8.92;89.01;98804.04;105265;1311;22582;-73
2021/12/31 10:16:30;;;;;;;31.40;18.20;;;;;;;8.93;88.58;98803.13;105224;1312;22582;-74
2021/12/31 10:19:12;;;;;;;31.40;17.50;;;;;;;8.93;87.94;98793.90;105165;1313;22606;-74
2021/12/31 10:21:42;;;;;;;30.10;16.10;;;;;;;8.95;88.03;98793.26;105221;1312;22596;-73
2021/12/31 10:24:34;;;;;;;27.00;16.00;;;;;;;8.93;88.05;98791.48;105158;1312;22589;-74
2021/12/31 10:27:17;;;;;;;27.20;16.30;;;;;;;8.89;88.25;98793.75;105183;1313;22519;-74
2021/12/31 10:29:55;;;;;;;23.80;14.40;;;;;;;8.88;88.20;98803.89;105141;1307;22625;-77
2021/12/31 10:32:33;;;;;;;26.30;15.60;;;;;;;8.86;87.89;98810.41;105183;1311;25424;-74
2021/12/31 10:35:07;;;;;;;24.60;14.90;;;;;;;8.86;87.51;98814.93;105059;1310;22576;-75
2021/12/31 10:37:50;;;;;;;22.50;14.30;;;;;;;8.90;87.67;98817.67;105102;1312;25184;-75
2021/12/31 10:40:30;;;;;;;;;;;;;;;8.96;87.72;98816.49;105075;1313;22711;-74
2021/12/31 10:43:11;;;;;;;23.90;14.70;;;;;;;9.00;87.94;98818.70;105217;1312;22875;-75
2021/12/31 10:45:39;;;;;;;26.30;15.60;;;;;;;8.94;88.15;98817.80;105201;1313;22723;-75
2021/12/31 10:48:09;;;;;;;27.50;16.10;;;;;;;8.95;87.87;98822.10;105209;1312;22582;-74
2021/12/31 10:50:37;;;;;;;27.10;14.80;;;;;;;8.95;87.70;98822.79;105179;1313;22580;-74
2021/12/31 10:53:12;;;;;;;23.30;14.50;;;;;;;9.02;87.71;98815.80;105227;1313;22596;-75
2021/12/31 10:55:40;;;;;;;26.20;13.80;;;;;;;9.07;87.48;98799.54;105244;1312;22611;-74
2021/12/31 10:58:12;;;;;;;23.70;14.80;;;;;;;9.14;87.81;98795.16;105230;1313;22571;-74
2021/12/31 11:00:42;;;;;;;23.30;13.40;;;;;;;9.15;87.70;98793.50;105239;1312;22612;-74
2021/12/31 11:03:10;;;;;;;23.20;13.80;;;;;;;9.16;87.34;98792.08;105179;1312;22593;-73
2021/12/31 11:05:38;;;;;;;21.40;12.50;;;;;;;9.14;87.37;98788.71;105218;1311;22705;-74
2021/12/31 11:08:13;;;;;;;19.60;11.60;;;;;;;9.19;87.11;98788.93;105177;1312;22574;-74
2021/12/31 11:10:41;;;;;;;20.90;11.60;;;;;;;9.19;87.24;98786.70;105219;1313;22586;-74
2021/12/31 11:13:11;;;;;;;23.60;13.50;;;;;;;9.21;87.68;98783.08;105257;1311;22558;-74
2021/12/31 11:15:43;;;;;;;24.10;14.80;;;;;;;9.18;87.46;98781.87;105173;1311;25239;-73
2021/12/31 11:18:18;;;;;;;;;;;;;;;9.17;87.22;98781.77;105168;1312;22578;-74
2021/12/31 11:20:47;;;;;;;21.60;13.40;;;;;;;9.15;87.17;98776.11;105186;1313;23918;-74
2021/12/31 11:23:14;;;;;;;19.40;11.90;;;;;;;9.21;87.11;98774.46;105198;1311;22580;-74
2021/12/31 11:25:51;;;;;;;19.00;12.00;;;;;;;9.26;87.01;98773.24;105196;1312;22588;-73